sensor_id;sensor_type;location;lat;lon;timestamp;P1;durP1;ratioP1;P2;durP2;ratioP2
25409;SDS011;13339;50.840;4.346;2022-10-15T00:00:30;36.67;;;27.40;;
25409;SDS011;13339;50.840;4.346;2022-10-15T00:02:56;37.97;;;28.13;;
25409;SDS011;13339;50.840;4.346;2022-10-15T00:05:22;40.23;;;27.20;;
25409;SDS011;13339;50.840;4.346;2022-10-15T00:07:47;32.03;;;25.47;;
25409;SDS011;13339;50.840;4.346;2022-10-15T00:10:13;35.83;;;25.57;;
25409;SDS011;13339;50.840;4.346;2022-10-15T00:12:39;33.80;;;24.27;;
25409;SDS011;13339;50.840;4.346;2022-10-15T00:15:06;31.67;;;24.73;;
25409;SDS011;13339;50.840;4.346;2022-10-15T00:17:32;34.83;;;24.63;;
25409;SDS011;13339;50.840;4.346;2022-10-15T00:19:59;29.10;;;23.23;;
25409;SDS011;13339;50.840;4.346;2022-10-15T00:22:24;32.90;;;23.43;;
25409;SDS011;13339;50.840;4.346;2022-10-15T00:24:50;31.87;;;23.53;;
25409;SDS011;13339;50.840;4.346;2022-10-15T00:27:16;30.70;;;22.97;;
25409;SDS011;13339;50.840;4.346;2022-10-15T00:29:42;26.43;;;21.47;;
25409;SDS011;13339;50.840;4.346;2022-10-15T00:32:07;29.53;;;22.07;;
25409;SDS011;13339;50.840;4.346;2022-10-15T00:34:33;26.53;;;21.53;;
25409;SDS011;13339;50.840;4.346;2022-10-15T00:36:58;28.97;;;21.63;;
25409;SDS011;13339;50.840;4.346;2022-10-15T00:39:24;27.80;;;20.33;;
25409;SDS011;13339;50.840;4.346;2022-10-15T00:41:50;26.33;;;21.60;;
25409;SDS011;13339;50.840;4.346;2022-10-15T00:46:54;27.40;;;21.17;;
25409;SDS011;13339;50.840;4.346;2022-10-15T00:52:24;30.03;;;21.43;;
25409;SDS011;13339;50.840;4.346;2022-10-15T00:54:57;25.37;;;19.53;;
25409;SDS011;13339;50.840;4.346;2022-10-15T00:57:27;22.80;;;19.57;;
25409;SDS011;13339;50.840;4.346;2022-10-15T00:59:56;21.70;;;18.77;;
25409;SDS011;13339;50.840;4.346;2022-10-15T01:02:25;24.87;;;19.27;;
25409;SDS011;13339;50.840;4.346;2022-10-15T01:04:51;27.60;;;20.63;;
25409;SDS011;13339;50.840;4.346;2022-10-15T01:07:19;23.63;;;18.97;;
25409;SDS011;13339;50.840;4.346;2022-10-15T01:09:44;26.03;;;19.07;;
25409;SDS011;13339;50.840;4.346;2022-10-15T01:12:13;25.43;;;19.03;;
25409;SDS011;13339;50.840;4.346;2022-10-15T01:15:01;23.47;;;19.53;;
25409;SDS011;13339;50.840;4.346;2022-10-15T01:25:54;29.37;;;20.30;;
25409;SDS011;13339;50.840;4.346;2022-10-15T01:28:57;29.13;;;19.63;;
25409;SDS011;13339;50.840;4.346;2022-10-15T01:35:16;23.47;;;19.67;;
25409;SDS011;13339;50.840;4.346;2022-10-15T01:39:51;28.97;;;20.83;;
25409;SDS011;13339;50.840;4.346;2022-10-15T01:42:33;28.43;;;21.37;;
25409;SDS011;13339;50.840;4.346;2022-10-15T01:45:08;26.87;;;21.00;;
25409;SDS011;13339;50.840;4.346;2022-10-15T01:47:38;26.93;;;20.83;;
25409;SDS011;13339;50.840;4.346;2022-10-15T01:50:19;27.57;;;20.97;;
25409;SDS011;13339;50.840;4.346;2022-10-15T01:52:49;28.40;;;21.90;;
25409;SDS011;13339;50.840;4.346;2022-10-15T01:55:16;29.97;;;22.07;;
25409;SDS011;13339;50.840;4.346;2022-10-15T01:57:45;30.10;;;21.87;;
25409;SDS011;13339;50.840;4.346;2022-10-15T02:00:12;33.23;;;23.97;;
25409;SDS011;13339;50.840;4.346;2022-10-15T02:02:37;33.53;;;24.53;;
25409;SDS011;13339;50.840;4.346;2022-10-15T02:05:06;31.90;;;23.07;;
25409;SDS011;13339;50.840;4.346;2022-10-15T02:08:01;32.90;;;23.27;;
25409;SDS011;13339;50.840;4.346;2022-10-15T02:10:38;37.57;;;25.07;;
25409;SDS011;13339;50.840;4.346;2022-10-15T02:16:10;36.03;;;24.47;;
25409;SDS011;13339;50.840;4.346;2022-10-15T02:22:21;34.27;;;24.17;;
25409;SDS011;13339;50.840;4.346;2022-10-15T02:24:24;32.50;;;22.93;;
25409;SDS011;13339;50.840;4.346;2022-10-15T02:26:52;34.90;;;24.63;;
25409;SDS011;13339;50.840;4.346;2022-10-15T02:29:21;35.80;;;23.87;;
25409;SDS011;13339;50.840;4.346;2022-10-15T02:31:51;36.57;;;23.80;;
25409;SDS011;13339;50.840;4.346;2022-10-15T02:34:19;34.13;;;23.33;;
25409;SDS011;13339;50.840;4.346;2022-10-15T02:36:47;32.33;;;22.77;;
25409;SDS011;13339;50.840;4.346;2022-10-15T02:39:16;32.07;;;23.07;;
25409;SDS011;13339;50.840;4.346;2022-10-15T02:41:45;30.87;;;23.30;;
25409;SDS011;13339;50.840;4.346;2022-10-15T02:44:12;31.07;;;24.00;;
25409;SDS011;13339;50.840;4.346;2022-10-15T02:46:38;33.30;;;22.73;;
25409;SDS011;13339;50.840;4.346;2022-10-15T02:49:04;32.07;;;22.60;;
25409;SDS011;13339;50.840;4.346;2022-10-15T02:51:30;30.13;;;20.90;;
25409;SDS011;13339;50.840;4.346;2022-10-15T02:53:57;27.83;;;21.13;;
25409;SDS011;13339;50.840;4.346;2022-10-15T02:56:23;28.03;;;22.00;;
25409;SDS011;13339;50.840;4.346;2022-10-15T02:58:48;29.27;;;21.80;;
25409;SDS011;13339;50.840;4.346;2022-10-15T03:01:14;31.53;;;22.30;;
25409;SDS011;13339;50.840;4.346;2022-10-15T03:03:39;30.23;;;22.80;;
25409;SDS011;13339;50.840;4.346;2022-10-15T03:06:05;30.83;;;21.63;;
25409;SDS011;13339;50.840;4.346;2022-10-15T03:08:31;28.43;;;20.97;;
25409;SDS011;13339;50.840;4.346;2022-10-15T03:10:58;27.43;;;21.03;;
25409;SDS011;13339;50.840;4.346;2022-10-15T03:13:25;30.23;;;20.60;;
25409;SDS011;13339;50.840;4.346;2022-10-15T03:15:51;29.67;;;19.97;;
25409;SDS011;13339;50.840;4.346;2022-10-15T03:18:16;33.13;;;21.23;;
25409;SDS011;13339;50.840;4.346;2022-10-15T03:20:42;27.47;;;21.00;;
25409;SDS011;13339;50.840;4.346;2022-10-15T03:23:08;30.17;;;20.97;;
25409;SDS011;13339;50.840;4.346;2022-10-15T03:25:33;28.60;;;21.37;;
25409;SDS011;13339;50.840;4.346;2022-10-15T03:27:59;28.37;;;20.80;;
25409;SDS011;13339;50.840;4.346;2022-10-15T03:30:25;29.03;;;20.60;;
25409;SDS011;13339;50.840;4.346;2022-10-15T03:32:50;26.57;;;20.53;;
25409;SDS011;13339;50.840;4.346;2022-10-15T03:35:16;28.07;;;22.00;;
25409;SDS011;13339;50.840;4.346;2022-10-15T03:37:41;30.87;;;22.23;;
25409;SDS011;13339;50.840;4.346;2022-10-15T03:40:07;29.80;;;23.60;;
25409;SDS011;13339;50.840;4.346;2022-10-15T03:42:33;30.93;;;23.27;;
25409;SDS011;13339;50.840;4.346;2022-10-15T03:44:59;32.30;;;23.30;;
25409;SDS011;13339;50.840;4.346;2022-10-15T03:47:24;31.43;;;23.63;;
25409;SDS011;13339;50.840;4.346;2022-10-15T03:49:50;35.47;;;24.60;;
25409;SDS011;13339;50.840;4.346;2022-10-15T03:52:16;31.30;;;24.23;;
25409;SDS011;13339;50.840;4.346;2022-10-15T03:54:42;34.73;;;23.63;;
25409;SDS011;13339;50.840;4.346;2022-10-15T03:57:08;30.70;;;21.00;;
25409;SDS011;13339;50.840;4.346;2022-10-15T03:59:33;28.30;;;21.10;;
25409;SDS011;13339;50.840;4.346;2022-10-15T04:01:59;27.17;;;20.90;;
25409;SDS011;13339;50.840;4.346;2022-10-15T04:04:25;27.33;;;20.30;;
25409;SDS011;13339;50.840;4.346;2022-10-15T04:06:51;23.77;;;18.60;;
25409;SDS011;13339;50.840;4.346;2022-10-15T04:09:16;25.57;;;18.80;;
25409;SDS011;13339;50.840;4.346;2022-10-15T04:11:42;25.70;;;18.67;;
25409;SDS011;13339;50.840;4.346;2022-10-15T04:14:07;25.47;;;18.10;;
25409;SDS011;13339;50.840;4.346;2022-10-15T04:16:33;24.00;;;17.93;;
25409;SDS011;13339;50.840;4.346;2022-10-15T04:18:58;23.23;;;17.80;;
25409;SDS011;13339;50.840;4.346;2022-10-15T04:21:24;22.00;;;17.07;;
25409;SDS011;13339;50.840;4.346;2022-10-15T04:23:50;22.57;;;17.40;;
25409;SDS011;13339;50.840;4.346;2022-10-15T04:26:15;22.70;;;17.33;;
25409;SDS011;13339;50.840;4.346;2022-10-15T04:28:41;25.50;;;17.90;;
25409;SDS011;13339;50.840;4.346;2022-10-15T04:31:07;22.10;;;16.17;;
25409;SDS011;13339;50.840;4.346;2022-10-15T04:33:33;20.90;;;16.37;;
25409;SDS011;13339;50.840;4.346;2022-10-15T04:38:29;22.40;;;15.77;;
25409;SDS011;13339;50.840;4.346;2022-10-15T04:41:02;19.60;;;15.47;;
25409;SDS011;13339;50.840;4.346;2022-10-15T04:43:30;21.07;;;16.13;;
25409;SDS011;13339;50.840;4.346;2022-10-15T04:45:57;20.17;;;15.13;;
25409;SDS011;13339;50.840;4.346;2022-10-15T04:48:24;22.10;;;15.63;;
25409;SDS011;13339;50.840;4.346;2022-10-15T04:50:51;20.03;;;14.13;;
25409;SDS011;13339;50.840;4.346;2022-10-15T04:53:17;17.73;;;13.43;;
25409;SDS011;13339;50.840;4.346;2022-10-15T04:55:43;17.50;;;12.63;;
25409;SDS011;13339;50.840;4.346;2022-10-15T04:58:08;17.13;;;12.70;;
25409;SDS011;13339;50.840;4.346;2022-10-15T05:00:34;16.57;;;12.37;;
25409;SDS011;13339;50.840;4.346;2022-10-15T05:02:59;13.77;;;10.63;;
25409;SDS011;13339;50.840;4.346;2022-10-15T05:05:25;18.07;;;11.93;;
25409;SDS011;13339;50.840;4.346;2022-10-15T05:07:50;13.47;;;10.93;;
25409;SDS011;13339;50.840;4.346;2022-10-15T05:10:16;14.00;;;11.03;;
25409;SDS011;13339;50.840;4.346;2022-10-15T05:12:41;18.30;;;10.67;;
25409;SDS011;13339;50.840;4.346;2022-10-15T05:15:07;14.00;;;10.57;;
25409;SDS011;13339;50.840;4.346;2022-10-15T05:17:33;14.30;;;10.83;;
25409;SDS011;13339;50.840;4.346;2022-10-15T05:19:59;14.07;;;10.07;;
25409;SDS011;13339;50.840;4.346;2022-10-15T05:22:24;14.83;;;10.30;;
25409;SDS011;13339;50.840;4.346;2022-10-15T05:24:50;12.17;;;10.07;;
25409;SDS011;13339;50.840;4.346;2022-10-15T05:27:15;12.83;;;9.80;;
25409;SDS011;13339;50.840;4.346;2022-10-15T05:29:41;14.63;;;10.23;;
25409;SDS011;13339;50.840;4.346;2022-10-15T05:32:06;13.93;;;9.73;;
25409;SDS011;13339;50.840;4.346;2022-10-15T05:34:32;14.33;;;10.17;;
25409;SDS011;13339;50.840;4.346;2022-10-15T05:36:58;12.20;;;9.67;;
25409;SDS011;13339;50.840;4.346;2022-10-15T05:39:23;14.20;;;9.83;;
25409;SDS011;13339;50.840;4.346;2022-10-15T05:41:49;13.47;;;9.83;;
25409;SDS011;13339;50.840;4.346;2022-10-15T05:44:15;16.20;;;9.37;;
25409;SDS011;13339;50.840;4.346;2022-10-15T05:46:40;12.13;;;9.27;;
25409;SDS011;13339;50.840;4.346;2022-10-15T05:49:06;12.57;;;8.70;;
25409;SDS011;13339;50.840;4.346;2022-10-15T05:51:32;13.10;;;9.17;;
25409;SDS011;13339;50.840;4.346;2022-10-15T05:53:57;10.50;;;8.17;;
25409;SDS011;13339;50.840;4.346;2022-10-15T05:56:23;9.63;;;7.97;;
25409;SDS011;13339;50.840;4.346;2022-10-15T05:58:49;11.57;;;8.10;;
25409;SDS011;13339;50.840;4.346;2022-10-15T06:01:15;11.63;;;7.93;;
25409;SDS011;13339;50.840;4.346;2022-10-15T06:03:42;10.73;;;8.20;;
25409;SDS011;13339;50.840;4.346;2022-10-15T06:06:21;11.07;;;7.73;;
25409;SDS011;13339;50.840;4.346;2022-10-15T06:08:48;11.33;;;8.30;;
25409;SDS011;13339;50.840;4.346;2022-10-15T06:11:15;14.23;;;7.93;;
25409;SDS011;13339;50.840;4.346;2022-10-15T06:13:41;11.37;;;8.30;;
25409;SDS011;13339;50.840;4.346;2022-10-15T06:16:08;16.70;;;8.03;;
25409;SDS011;13339;50.840;4.346;2022-10-15T06:18:34;12.47;;;8.53;;
25409;SDS011;13339;50.840;4.346;2022-10-15T06:21:00;9.83;;;7.33;;
25409;SDS011;13339;50.840;4.346;2022-10-15T06:23:26;9.87;;;7.27;;
25409;SDS011;13339;50.840;4.346;2022-10-15T06:25:52;10.03;;;7.47;;
25409;SDS011;13339;50.840;4.346;2022-10-15T06:28:17;10.47;;;6.87;;
25409;SDS011;13339;50.840;4.346;2022-10-15T06:30:43;9.43;;;7.00;;
25409;SDS011;13339;50.840;4.346;2022-10-15T06:33:09;11.33;;;7.97;;
25409;SDS011;13339;50.840;4.346;2022-10-15T06:35:35;11.70;;;7.83;;
25409;SDS011;13339;50.840;4.346;2022-10-15T06:38:01;10.23;;;7.03;;
25409;SDS011;13339;50.840;4.346;2022-10-15T06:40:27;10.23;;;7.57;;
25409;SDS011;13339;50.840;4.346;2022-10-15T06:42:53;13.80;;;7.43;;
25409;SDS011;13339;50.840;4.346;2022-10-15T06:45:19;9.80;;;6.50;;
25409;SDS011;13339;50.840;4.346;2022-10-15T06:47:45;14.07;;;7.23;;
25409;SDS011;13339;50.840;4.346;2022-10-15T06:50:10;10.00;;;6.53;;
25409;SDS011;13339;50.840;4.346;2022-10-15T06:52:36;11.60;;;8.67;;
25409;SDS011;13339;50.840;4.346;2022-10-15T06:55:02;12.47;;;7.83;;
25409;SDS011;13339;50.840;4.346;2022-10-15T06:57:29;9.47;;;6.73;;
25409;SDS011;13339;50.840;4.346;2022-10-15T06:59:55;8.10;;;6.60;;
25409;SDS011;13339;50.840;4.346;2022-10-15T07:02:20;17.50;;;11.07;;
25409;SDS011;13339;50.840;4.346;2022-10-15T07:04:46;11.60;;;8.43;;
25409;SDS011;13339;50.840;4.346;2022-10-15T07:07:12;11.83;;;8.93;;
25409;SDS011;13339;50.840;4.346;2022-10-15T07:09:38;10.17;;;6.93;;
25409;SDS011;13339;50.840;4.346;2022-10-15T07:12:04;10.60;;;7.20;;
25409;SDS011;13339;50.840;4.346;2022-10-15T07:14:30;9.17;;;6.70;;
25409;SDS011;13339;50.840;4.346;2022-10-15T07:16:56;10.30;;;6.60;;
25409;SDS011;13339;50.840;4.346;2022-10-15T07:19:22;9.03;;;6.27;;
25409;SDS011;13339;50.840;4.346;2022-10-15T07:21:47;6.77;;;5.67;;
25409;SDS011;13339;50.840;4.346;2022-10-15T07:24:13;11.10;;;6.30;;
25409;SDS011;13339;50.840;4.346;2022-10-15T07:26:38;8.60;;;5.50;;
25409;SDS011;13339;50.840;4.346;2022-10-15T07:29:04;8.10;;;6.03;;
25409;SDS011;13339;50.840;4.346;2022-10-15T07:31:30;7.60;;;5.87;;
25409;SDS011;13339;50.840;4.346;2022-10-15T07:33:55;7.30;;;5.70;;
25409;SDS011;13339;50.840;4.346;2022-10-15T07:36:21;8.13;;;5.77;;
25409;SDS011;13339;50.840;4.346;2022-10-15T07:38:46;6.53;;;5.30;;
25409;SDS011;13339;50.840;4.346;2022-10-15T07:41:12;7.80;;;5.30;;
25409;SDS011;13339;50.840;4.346;2022-10-15T07:43:38;9.27;;;5.50;;
25409;SDS011;13339;50.840;4.346;2022-10-15T07:46:04;8.07;;;5.73;;
25409;SDS011;13339;50.840;4.346;2022-10-15T07:48:30;6.00;;;5.37;;
25409;SDS011;13339;50.840;4.346;2022-10-15T07:50:57;8.17;;;4.70;;
25409;SDS011;13339;50.840;4.346;2022-10-15T07:53:24;7.87;;;4.80;;
25409;SDS011;13339;50.840;4.346;2022-10-15T07:55:50;11.03;;;5.37;;
25409;SDS011;13339;50.840;4.346;2022-10-15T07:58:16;5.20;;;4.57;;
25409;SDS011;13339;50.840;4.346;2022-10-15T08:00:42;8.80;;;4.80;;
25409;SDS011;13339;50.840;4.346;2022-10-15T08:03:08;8.20;;;4.60;;
25409;SDS011;13339;50.840;4.346;2022-10-15T08:05:33;7.47;;;4.53;;
25409;SDS011;13339;50.840;4.346;2022-10-15T08:07:59;5.97;;;3.87;;
25409;SDS011;13339;50.840;4.346;2022-10-15T08:10:26;7.87;;;5.27;;
25409;SDS011;13339;50.840;4.346;2022-10-15T08:12:51;6.90;;;4.30;;
25409;SDS011;13339;50.840;4.346;2022-10-15T08:15:18;4.90;;;3.70;;
25409;SDS011;13339;50.840;4.346;2022-10-15T08:17:44;4.50;;;3.93;;
25409;SDS011;13339;50.840;4.346;2022-10-15T08:20:10;6.30;;;3.53;;
25409;SDS011;13339;50.840;4.346;2022-10-15T08:22:36;6.47;;;3.67;;
25409;SDS011;13339;50.840;4.346;2022-10-15T08:25:02;6.47;;;3.70;;
25409;SDS011;13339;50.840;4.346;2022-10-15T08:27:28;4.50;;;3.10;;
25409;SDS011;13339;50.840;4.346;2022-10-15T08:29:53;4.60;;;3.47;;
25409;SDS011;13339;50.840;4.346;2022-10-15T08:32:19;3.93;;;3.30;;
25409;SDS011;13339;50.840;4.346;2022-10-15T08:34:45;3.50;;;2.80;;
25409;SDS011;13339;50.840;4.346;2022-10-15T08:37:10;3.30;;;2.70;;
25409;SDS011;13339;50.840;4.346;2022-10-15T08:39:36;4.00;;;2.40;;
25409;SDS011;13339;50.840;4.346;2022-10-15T08:42:03;3.57;;;2.23;;
25409;SDS011;13339;50.840;4.346;2022-10-15T08:44:58;5.50;;;3.83;;
25409;SDS011;13339;50.840;4.346;2022-10-15T08:50:33;4.27;;;1.97;;
25409;SDS011;13339;50.840;4.346;2022-10-15T08:53:00;2.20;;;1.70;;
25409;SDS011;13339;50.840;4.346;2022-10-15T08:55:28;2.37;;;1.93;;
25409;SDS011;13339;50.840;4.346;2022-10-15T08:58:43;3.00;;;1.90;;
25409;SDS011;13339;50.840;4.346;2022-10-15T09:01:51;2.00;;;1.80;;
25409;SDS011;13339;50.840;4.346;2022-10-15T09:03:55;2.17;;;1.67;;
25409;SDS011;13339;50.840;4.346;2022-10-15T09:06:33;4.27;;;1.90;;
25409;SDS011;13339;50.840;4.346;2022-10-15T09:14:17;3.23;;;1.60;;
25409;SDS011;13339;50.840;4.346;2022-10-15T09:16:48;1.83;;;1.30;;
25409;SDS011;13339;50.840;4.346;2022-10-15T09:19:18;2.80;;;1.30;;
25409;SDS011;13339;50.840;4.346;2022-10-15T09:21:46;1.27;;;1.13;;
25409;SDS011;13339;50.840;4.346;2022-10-15T09:24:16;2.53;;;0.90;;
25409;SDS011;13339;50.840;4.346;2022-10-15T09:29:47;1.20;;;1.10;;
25409;SDS011;13339;50.840;4.346;2022-10-15T09:32:26;1.50;;;0.93;;
25409;SDS011;13339;50.840;4.346;2022-10-15T09:35:00;1.10;;;0.77;;
25409;SDS011;13339;50.840;4.346;2022-10-15T09:40:43;2.53;;;1.30;;
25409;SDS011;13339;50.840;4.346;2022-10-15T09:43:11;2.30;;;1.30;;
25409;SDS011;13339;50.840;4.346;2022-10-15T09:45:38;2.17;;;1.40;;
25409;SDS011;13339;50.840;4.346;2022-10-15T09:48:09;2.53;;;1.30;;
25409;SDS011;13339;50.840;4.346;2022-10-15T09:50:47;1.93;;;1.70;;
25409;SDS011;13339;50.840;4.346;2022-10-15T09:53:45;2.80;;;1.50;;
25409;SDS011;13339;50.840;4.346;2022-10-15T09:56:31;2.03;;;1.27;;
25409;SDS011;13339;50.840;4.346;2022-10-15T09:59:00;1.73;;;1.53;;
25409;SDS011;13339;50.840;4.346;2022-10-15T10:01:27;1.40;;;1.30;;
25409;SDS011;13339;50.840;4.346;2022-10-15T10:04:08;1.83;;;1.50;;
25409;SDS011;13339;50.840;4.346;2022-10-15T10:06:45;1.97;;;1.40;;
25409;SDS011;13339;50.840;4.346;2022-10-15T10:09:16;1.23;;;1.10;;
25409;SDS011;13339;50.840;4.346;2022-10-15T10:11:50;1.10;;;1.00;;
25409;SDS011;13339;50.840;4.346;2022-10-15T10:14:39;2.50;;;1.53;;
25409;SDS011;13339;50.840;4.346;2022-10-15T10:19:42;2.73;;;1.40;;
25409;SDS011;13339;50.840;4.346;2022-10-15T10:22:13;1.87;;;1.40;;
25409;SDS011;13339;50.840;4.346;2022-10-15T10:24:44;1.50;;;1.40;;
25409;SDS011;13339;50.840;4.346;2022-10-15T10:27:18;4.40;;;1.50;;
25409;SDS011;13339;50.840;4.346;2022-10-15T10:32:22;1.83;;;1.70;;
25409;SDS011;13339;50.840;4.346;2022-10-15T10:34:52;3.90;;;2.17;;
25409;SDS011;13339;50.840;4.346;2022-10-15T10:37:19;3.37;;;1.73;;
25409;SDS011;13339;50.840;4.346;2022-10-15T10:39:45;1.90;;;1.70;;
25409;SDS011;13339;50.840;4.346;2022-10-15T10:42:32;2.00;;;1.63;;
25409;SDS011;13339;50.840;4.346;2022-10-15T10:48:14;7.47;;;2.37;;
25409;SDS011;13339;50.840;4.346;2022-10-15T10:50:46;5.07;;;2.77;;
25409;SDS011;13339;50.840;4.346;2022-10-15T10:53:19;3.93;;;1.90;;
25409;SDS011;13339;50.840;4.346;2022-10-15T10:55:47;6.60;;;1.87;;
25409;SDS011;13339;50.840;4.346;2022-10-15T10:58:16;2.17;;;1.70;;
25409;SDS011;13339;50.840;4.346;2022-10-15T11:00:46;1.77;;;1.63;;
25409;SDS011;13339;50.840;4.346;2022-10-15T11:03:34;3.13;;;2.03;;
25409;SDS011;13339;50.840;4.346;2022-10-15T11:06:20;3.47;;;2.00;;
25409;SDS011;13339;50.840;4.346;2022-10-15T11:14:52;1.67;;;1.40;;
25409;SDS011;13339;50.840;4.346;2022-10-15T11:20:29;1.60;;;1.47;;
25409;SDS011;13339;50.840;4.346;2022-10-15T11:43:17;3.13;;;1.30;;
25409;SDS011;13339;50.840;4.346;2022-10-15T11:49:23;1.60;;;1.40;;
25409;SDS011;13339;50.840;4.346;2022-10-15T11:51:48;1.70;;;1.33;;
25409;SDS011;13339;50.840;4.346;2022-10-15T11:56:57;2.10;;;1.47;;
25409;SDS011;13339;50.840;4.346;2022-10-15T12:01:58;1.70;;;1.47;;
25409;SDS011;13339;50.840;4.346;2022-10-15T12:04:37;1.83;;;1.70;;
25409;SDS011;13339;50.840;4.346;2022-10-15T12:07:06;2.33;;;1.50;;
25409;SDS011;13339;50.840;4.346;2022-10-15T12:09:40;3.67;;;1.50;;
25409;SDS011;13339;50.840;4.346;2022-10-15T12:12:19;4.07;;;1.67;;
25409;SDS011;13339;50.840;4.346;2022-10-15T12:17:34;2.00;;;1.80;;
25409;SDS011;13339;50.840;4.346;2022-10-15T12:20:13;4.90;;;1.43;;
25409;SDS011;13339;50.840;4.346;2022-10-15T12:28:03;1.20;;;1.10;;
25409;SDS011;13339;50.840;4.346;2022-10-15T12:30:38;1.90;;;1.17;;
25409;SDS011;13339;50.840;4.346;2022-10-15T12:33:23;1.30;;;1.00;;
25409;SDS011;13339;50.840;4.346;2022-10-15T12:39:00;2.53;;;1.20;;
25409;SDS011;13339;50.840;4.346;2022-10-15T12:41:42;4.57;;;1.63;;
25409;SDS011;13339;50.840;4.346;2022-10-15T12:44:21;2.57;;;1.40;;
25409;SDS011;13339;50.840;4.346;2022-10-15T12:46:52;2.90;;;1.50;;
25409;SDS011;13339;50.840;4.346;2022-10-15T12:51:59;2.13;;;1.00;;
25409;SDS011;13339;50.840;4.346;2022-10-15T13:00:00;1.90;;;0.93;;
25409;SDS011;13339;50.840;4.346;2022-10-15T13:02:47;2.60;;;1.30;;
25409;SDS011;13339;50.840;4.346;2022-10-15T13:05:30;5.00;;;1.20;;
25409;SDS011;13339;50.840;4.346;2022-10-15T13:07:58;5.10;;;1.33;;
25409;SDS011;13339;50.840;4.346;2022-10-15T13:10:27;3.90;;;1.00;;
25409;SDS011;13339;50.840;4.346;2022-10-15T13:12:56;2.20;;;1.10;;
25409;SDS011;13339;50.840;4.346;2022-10-15T13:15:25;2.20;;;0.90;;
25409;SDS011;13339;50.840;4.346;2022-10-15T13:17:56;4.00;;;1.23;;
25409;SDS011;13339;50.840;4.346;2022-10-15T13:20:37;2.50;;;1.40;;
25409;SDS011;13339;50.840;4.346;2022-10-15T13:23:14;2.47;;;1.40;;
25409;SDS011;13339;50.840;4.346;2022-10-15T13:25:52;4.57;;;1.50;;
25409;SDS011;13339;50.840;4.346;2022-10-15T13:28:41;2.90;;;1.20;;
25409;SDS011;13339;50.840;4.346;2022-10-15T13:31:15;5.03;;;1.47;;
25409;SDS011;13339;50.840;4.346;2022-10-15T13:33:47;5.70;;;1.57;;
25409;SDS011;13339;50.840;4.346;2022-10-15T13:36:17;6.03;;;1.20;;
25409;SDS011;13339;50.840;4.346;2022-10-15T13:38:50;4.17;;;1.20;;
25409;SDS011;13339;50.840;4.346;2022-10-15T13:41:24;6.90;;;1.70;;
25409;SDS011;13339;50.840;4.346;2022-10-15T13:43:53;3.87;;;1.30;;
25409;SDS011;13339;50.840;4.346;2022-10-15T13:46:23;4.23;;;1.20;;
25409;SDS011;13339;50.840;4.346;2022-10-15T13:48:55;2.63;;;1.00;;
25409;SDS011;13339;50.840;4.346;2022-10-15T13:51:22;6.77;;;1.57;;
25409;SDS011;13339;50.840;4.346;2022-10-15T13:53:52;7.50;;;1.60;;
25409;SDS011;13339;50.840;4.346;2022-10-15T13:58:51;4.67;;;1.40;;
25409;SDS011;13339;50.840;4.346;2022-10-15T14:01:18;5.33;;;1.40;;
25409;SDS011;13339;50.840;4.346;2022-10-15T14:03:50;2.40;;;0.90;;
25409;SDS011;13339;50.840;4.346;2022-10-15T14:06:21;4.17;;;1.50;;
25409;SDS011;13339;50.840;4.346;2022-10-15T14:08:57;3.33;;;1.43;;
25409;SDS011;13339;50.840;4.346;2022-10-15T14:11:38;5.47;;;1.40;;
25409;SDS011;13339;50.840;4.346;2022-10-15T14:14:04;5.70;;;1.20;;
25409;SDS011;13339;50.840;4.346;2022-10-15T14:16:54;5.20;;;1.20;;
25409;SDS011;13339;50.840;4.346;2022-10-15T14:19:21;6.63;;;1.47;;
25409;SDS011;13339;50.840;4.346;2022-10-15T14:21:54;4.50;;;1.50;;
25409;SDS011;13339;50.840;4.346;2022-10-15T14:24:21;3.83;;;1.30;;
25409;SDS011;13339;50.840;4.346;2022-10-15T14:26:51;2.30;;;1.10;;
25409;SDS011;13339;50.840;4.346;2022-10-15T14:29:26;2.83;;;1.20;;
25409;SDS011;13339;50.840;4.346;2022-10-15T14:31:58;3.20;;;1.00;;
25409;SDS011;13339;50.840;4.346;2022-10-15T14:36:59;5.17;;;1.10;;
25409;SDS011;13339;50.840;4.346;2022-10-15T14:39:30;5.73;;;1.20;;
25409;SDS011;13339;50.840;4.346;2022-10-15T14:42:01;7.77;;;1.33;;
25409;SDS011;13339;50.840;4.346;2022-10-15T14:44:47;4.53;;;1.20;;
25409;SDS011;13339;50.840;4.346;2022-10-15T14:49:48;2.73;;;1.07;;
25409;SDS011;13339;50.840;4.346;2022-10-15T14:52:17;3.50;;;1.20;;
25409;SDS011;13339;50.840;4.346;2022-10-15T14:57:33;5.50;;;1.40;;
25409;SDS011;13339;50.840;4.346;2022-10-15T15:00:00;3.17;;;1.20;;
25409;SDS011;13339;50.840;4.346;2022-10-15T15:02:29;3.50;;;1.37;;
25409;SDS011;13339;50.840;4.346;2022-10-15T15:07:42;5.00;;;1.50;;
25409;SDS011;13339;50.840;4.346;2022-10-15T15:10:08;5.70;;;1.30;;
25409;SDS011;13339;50.840;4.346;2022-10-15T15:12:34;4.37;;;1.27;;
25409;SDS011;13339;50.840;4.346;2022-10-15T15:15:03;4.13;;;1.30;;
25409;SDS011;13339;50.840;4.346;2022-10-15T15:17:36;4.37;;;1.17;;
25409;SDS011;13339;50.840;4.346;2022-10-15T15:20:02;6.37;;;1.50;;
25409;SDS011;13339;50.840;4.346;2022-10-15T15:22:29;4.27;;;1.30;;
25409;SDS011;13339;50.840;4.346;2022-10-15T15:24:59;4.20;;;1.53;;
25409;SDS011;13339;50.840;4.346;2022-10-15T15:27:29;4.77;;;1.30;;
25409;SDS011;13339;50.840;4.346;2022-10-15T15:30:01;4.73;;;1.20;;
25409;SDS011;13339;50.840;4.346;2022-10-15T15:32:28;4.47;;;1.27;;
25409;SDS011;13339;50.840;4.346;2022-10-15T15:34:53;6.27;;;1.47;;
25409;SDS011;13339;50.840;4.346;2022-10-15T15:37:22;4.40;;;1.60;;
25409;SDS011;13339;50.840;4.346;2022-10-15T15:39:49;6.70;;;1.50;;
25409;SDS011;13339;50.840;4.346;2022-10-15T15:42:15;8.77;;;1.63;;
25409;SDS011;13339;50.840;4.346;2022-10-15T15:44:46;5.23;;;1.50;;
25409;SDS011;13339;50.840;4.346;2022-10-15T15:47:12;9.20;;;1.87;;
25409;SDS011;13339;50.840;4.346;2022-10-15T15:49:38;4.63;;;1.27;;
25409;SDS011;13339;50.840;4.346;2022-10-15T15:52:05;5.90;;;1.63;;
25409;SDS011;13339;50.840;4.346;2022-10-15T15:54:37;5.53;;;1.60;;
25409;SDS011;13339;50.840;4.346;2022-10-15T15:57:04;7.37;;;1.57;;
25409;SDS011;13339;50.840;4.346;2022-10-15T15:59:30;6.10;;;1.83;;
25409;SDS011;13339;50.840;4.346;2022-10-15T16:01:55;7.47;;;1.90;;
25409;SDS011;13339;50.840;4.346;2022-10-15T16:04:21;5.80;;;1.87;;
25409;SDS011;13339;50.840;4.346;2022-10-15T16:06:47;8.00;;;2.03;;
25409;SDS011;13339;50.840;4.346;2022-10-15T16:09:13;10.17;;;1.60;;
25409;SDS011;13339;50.840;4.346;2022-10-15T16:11:42;8.57;;;2.10;;
25409;SDS011;13339;50.840;4.346;2022-10-15T16:14:08;8.73;;;1.77;;
25409;SDS011;13339;50.840;4.346;2022-10-15T16:16:34;5.43;;;1.87;;
25409;SDS011;13339;50.840;4.346;2022-10-15T16:19:00;4.47;;;1.80;;
25409;SDS011;13339;50.840;4.346;2022-10-15T16:21:26;8.60;;;1.73;;
25409;SDS011;13339;50.840;4.346;2022-10-15T16:23:52;8.13;;;2.00;;
25409;SDS011;13339;50.840;4.346;2022-10-15T16:26:18;3.27;;;1.83;;
25409;SDS011;13339;50.840;4.346;2022-10-15T16:28:44;5.53;;;1.80;;
25409;SDS011;13339;50.840;4.346;2022-10-15T16:33:39;6.00;;;2.10;;
25409;SDS011;13339;50.840;4.346;2022-10-15T16:36:05;7.43;;;2.40;;
25409;SDS011;13339;50.840;4.346;2022-10-15T16:38:30;11.10;;;3.87;;
25409;SDS011;13339;50.840;4.346;2022-10-15T16:40:56;7.77;;;1.93;;
25409;SDS011;13339;50.840;4.346;2022-10-15T16:43:22;4.30;;;1.87;;
25409;SDS011;13339;50.840;4.346;2022-10-15T16:45:56;8.80;;;2.20;;
25409;SDS011;13339;50.840;4.346;2022-10-15T16:48:23;5.63;;;2.60;;
25409;SDS011;13339;50.840;4.346;2022-10-15T16:53:35;9.63;;;2.87;;
25409;SDS011;13339;50.840;4.346;2022-10-15T16:56:03;7.80;;;2.23;;